sensor_id;sensor_type;location;lat;lon;timestamp;temperature;humidity
44117;DHT22;29781;49.480;8.512;2023-06-22T00:01:52;24.20;99.90
44117;DHT22;29781;49.480;8.512;2023-06-22T00:04:18;24.40;99.90
44117;DHT22;29781;49.480;8.512;2023-06-22T00:06:43;24.40;99.90
44117;DHT22;29781;49.480;8.512;2023-06-22T00:09:09;24.40;99.90
44117;DHT22;29781;49.480;8.512;2023-06-22T00:11:36;24.40;99.90
44117;DHT22;29781;49.480;8.512;2023-06-22T00:14:02;24.50;99.90
44117;DHT22;29781;49.480;8.512;2023-06-22T00:16:27;24.70;99.90
44117;DHT22;29781;49.480;8.512;2023-06-22T00:18:53;24.60;99.90
44117;DHT22;29781;49.480;8.512;2023-06-22T00:21:18;24.50;99.90
44117;DHT22;29781;49.480;8.512;2023-06-22T00:23:46;24.40;99.90
44117;DHT22;29781;49.480;8.512;2023-06-22T00:26:13;24.50;99.90
44117;DHT22;29781;49.480;8.512;2023-06-22T00:28:38;24.60;99.90
44117;DHT22;29781;49.480;8.512;2023-06-22T00:31:04;24.70;99.90
44117;DHT22;29781;49.480;8.512;2023-06-22T00:33:29;24.70;99.90
44117;DHT22;29781;49.480;8.512;2023-06-22T00:35:55;24.50;99.90
44117;DHT22;29781;49.480;8.512;2023-06-22T00:38:20;24.60;99.90
44117;DHT22;29781;49.480;8.512;2023-06-22T00:40:46;24.60;99.90
44117;DHT22;29781;49.480;8.512;2023-06-22T00:43:11;24.70;99.90
44117;DHT22;29781;49.480;8.512;2023-06-22T00:45:38;24.60;99.90
44117;DHT22;29781;49.480;8.512;2023-06-22T00:48:03;24.50;99.90
44117;DHT22;29781;49.480;8.512;2023-06-22T00:50:31;24.40;99.90
44117;DHT22;29781;49.480;8.512;2023-06-22T00:53:09;24.30;99.90
44117;DHT22;29781;49.480;8.512;2023-06-22T00:55:42;24.40;99.90
44117;DHT22;29781;49.480;8.512;2023-06-22T00:58:12;24.30;99.90
44117;DHT22;29781;49.480;8.512;2023-06-22T01:00:38;23.50;99.90
44117;DHT22;29781;49.480;8.512;2023-06-22T01:03:04;22.80;99.90
44117;DHT22;29781;49.480;8.512;2023-06-22T01:05:34;22.40;99.90
44117;DHT22;29781;49.480;8.512;2023-06-22T01:08:15;21.90;99.90
44117;DHT22;29781;49.480;8.512;2023-06-22T01:10:50;21.80;99.90
44117;DHT22;29781;49.480;8.512;2023-06-22T01:16:07;22.40;99.90
44117;DHT22;29781;49.480;8.512;2023-06-22T01:18:36;22.60;99.90
44117;DHT22;29781;49.480;8.512;2023-06-22T01:21:05;22.80;99.90
44117;DHT22;29781;49.480;8.512;2023-06-22T01:28:54;22.50;99.90
44117;DHT22;29781;49.480;8.512;2023-06-22T01:31:24;22.50;99.90
44117;DHT22;29781;49.480;8.512;2023-06-22T01:33:53;22.50;99.90
44117;DHT22;29781;49.480;8.512;2023-06-22T01:36:20;22.70;99.90
44117;DHT22;29781;49.480;8.512;2023-06-22T01:38:47;22.90;99.90
44117;DHT22;29781;49.480;8.512;2023-06-22T01:41:13;23.00;99.90
44117;DHT22;29781;49.480;8.512;2023-06-22T01:43:39;23.10;99.90
44117;DHT22;29781;49.480;8.512;2023-06-22T01:46:05;23.00;99.90
44117;DHT22;29781;49.480;8.512;2023-06-22T01:48:31;22.90;99.90
44117;DHT22;29781;49.480;8.512;2023-06-22T01:50:57;22.80;99.90
44117;DHT22;29781;49.480;8.512;2023-06-22T01:53:23;22.50;99.90
44117;DHT22;29781;49.480;8.512;2023-06-22T01:55:49;22.40;99.90
44117;DHT22;29781;49.480;8.512;2023-06-22T01:58:15;22.20;99.90
44117;DHT22;29781;49.480;8.512;2023-06-22T02:00:46;22.30;99.90
44117;DHT22;29781;49.480;8.512;2023-06-22T02:03:28;22.30;99.90
44117;DHT22;29781;49.480;8.512;2023-06-22T02:06:01;22.30;99.90
44117;DHT22;29781;49.480;8.512;2023-06-22T02:08:32;22.30;99.90
44117;DHT22;29781;49.480;8.512;2023-06-22T02:10:59;22.40;99.90
44117;DHT22;29781;49.480;8.512;2023-06-22T02:13:26;22.50;99.90
44117;DHT22;29781;49.480;8.512;2023-06-22T02:15:52;22.60;99.90
44117;DHT22;29781;49.480;8.512;2023-06-22T02:18:17;22.60;99.90
44117;DHT22;29781;49.480;8.512;2023-06-22T02:20:43;22.70;99.90
44117;DHT22;29781;49.480;8.512;2023-06-22T02:23:09;22.80;99.90
44117;DHT22;29781;49.480;8.512;2023-06-22T02:25:35;22.90;99.90
44117;DHT22;29781;49.480;8.512;2023-06-22T02:28:01;22.80;99.90
44117;DHT22;29781;49.480;8.512;2023-06-22T02:30:26;22.50;99.90
44117;DHT22;29781;49.480;8.512;2023-06-22T02:32:52;22.20;99.90
44117;DHT22;29781;49.480;8.512;2023-06-22T02:35:28;22.20;99.90
44117;DHT22;29781;49.480;8.512;2023-06-22T02:38:00;22.30;99.90
44117;DHT22;29781;49.480;8.512;2023-06-22T02:40:26;22.20;99.90
44117;DHT22;29781;49.480;8.512;2023-06-22T02:42:51;22.20;99.90
44117;DHT22;29781;49.480;8.512;2023-06-22T02:45:17;22.00;99.90
44117;DHT22;29781;49.480;8.512;2023-06-22T02:47:43;21.90;99.90
44117;DHT22;29781;49.480;8.512;2023-06-22T02:50:08;21.70;99.90
44117;DHT22;29781;49.480;8.512;2023-06-22T02:52:34;21.50;99.90
44117;DHT22;29781;49.480;8.512;2023-06-22T02:55:00;21.50;99.90
44117;DHT22;29781;49.480;8.512;2023-06-22T02:57:25;21.50;99.90
44117;DHT22;29781;49.480;8.512;2023-06-22T02:59:50;21.60;99.90
44117;DHT22;29781;49.480;8.512;2023-06-22T03:02:16;21.50;99.90
44117;DHT22;29781;49.480;8.512;2023-06-22T03:04:41;21.40;99.90
44117;DHT22;29781;49.480;8.512;2023-06-22T03:07:08;21.40;99.90
44117;DHT22;29781;49.480;8.512;2023-06-22T03:09:33;21.40;99.90
44117;DHT22;29781;49.480;8.512;2023-06-22T03:11:59;21.40;99.90
44117;DHT22;29781;49.480;8.512;2023-06-22T03:14:25;21.60;99.90
44117;DHT22;29781;49.480;8.512;2023-06-22T03:16:50;21.60;99.90
44117;DHT22;29781;49.480;8.512;2023-06-22T03:19:16;21.70;99.90
44117;DHT22;29781;49.480;8.512;2023-06-22T03:21:42;21.70;99.90
44117;DHT22;29781;49.480;8.512;2023-06-22T03:24:07;21.60;99.90
44117;DHT22;29781;49.480;8.512;2023-06-22T03:26:33;21.40;99.90
44117;DHT22;29781;49.480;8.512;2023-06-22T03:29:00;21.30;99.90
44117;DHT22;29781;49.480;8.512;2023-06-22T03:31:25;21.20;99.90
44117;DHT22;29781;49.480;8.512;2023-06-22T03:33:51;21.30;99.90
44117;DHT22;29781;49.480;8.512;2023-06-22T03:36:18;21.30;99.90
44117;DHT22;29781;49.480;8.512;2023-06-22T03:38:49;21.20;99.90
44117;DHT22;29781;49.480;8.512;2023-06-22T03:41:15;21.10;99.90
44117;DHT22;29781;49.480;8.512;2023-06-22T03:43:41;21.00;99.90
44117;DHT22;29781;49.480;8.512;2023-06-22T03:46:07;21.00;99.90
44117;DHT22;29781;49.480;8.512;2023-06-22T03:48:32;21.00;99.90
44117;DHT22;29781;49.480;8.512;2023-06-22T03:50:59;21.00;99.90
44117;DHT22;29781;49.480;8.512;2023-06-22T03:53:25;21.00;99.90
44117;DHT22;29781;49.480;8.512;2023-06-22T03:55:51;20.90;99.90
44117;DHT22;29781;49.480;8.512;2023-06-22T03:58:21;20.90;99.90
44117;DHT22;29781;49.480;8.512;2023-06-22T04:00:50;21.00;99.90
44117;DHT22;29781;49.480;8.512;2023-06-22T04:03:17;21.00;99.90
44117;DHT22;29781;49.480;8.512;2023-06-22T04:05:44;21.10;99.90
44117;DHT22;29781;49.480;8.512;2023-06-22T04:08:10;21.10;99.90
44117;DHT22;29781;49.480;8.512;2023-06-22T04:10:36;21.10;99.90
44117;DHT22;29781;49.480;8.512;2023-06-22T04:13:01;21.10;99.90
44117;DHT22;29781;49.480;8.512;2023-06-22T04:15:27;21.20;99.90
44117;DHT22;29781;49.480;8.512;2023-06-22T04:17:54;21.20;99.90
44117;DHT22;29781;49.480;8.512;2023-06-22T04:20:20;21.10;99.90
44117;DHT22;29781;49.480;8.512;2023-06-22T04:22:46;21.10;99.90
44117;DHT22;29781;49.480;8.512;2023-06-22T04:25:11;21.10;99.90
44117;DHT22;29781;49.480;8.512;2023-06-22T04:27:37;21.20;99.90
44117;DHT22;29781;49.480;8.512;2023-06-22T04:30:06;21.20;99.90
44117;DHT22;29781;49.480;8.512;2023-06-22T04:32:32;21.30;99.90
44117;DHT22;29781;49.480;8.512;2023-06-22T04:34:58;21.40;99.90
44117;DHT22;29781;49.480;8.512;2023-06-22T04:37:25;21.50;99.90
44117;DHT22;29781;49.480;8.512;2023-06-22T04:39:51;21.70;99.90
44117;DHT22;29781;49.480;8.512;2023-06-22T04:42:16;21.80;99.90
44117;DHT22;29781;49.480;8.512;2023-06-22T04:44:42;22.10;99.90
44117;DHT22;29781;49.480;8.512;2023-06-22T04:47:08;22.20;99.90
44117;DHT22;29781;49.480;8.512;2023-06-22T04:49:35;22.20;99.90
44117;DHT22;29781;49.480;8.512;2023-06-22T04:52:10;22.40;99.90
44117;DHT22;29781;49.480;8.512;2023-06-22T04:54:39;22.50;99.90
44117;DHT22;29781;49.480;8.512;2023-06-22T04:57:07;22.40;99.90
44117;DHT22;29781;49.480;8.512;2023-06-22T04:59:37;22.20;99.90
44117;DHT22;29781;49.480;8.512;2023-06-22T05:02:05;22.00;99.90
44117;DHT22;29781;49.480;8.512;2023-06-22T05:04:31;21.90;99.90
44117;DHT22;29781;49.480;8.512;2023-06-22T05:06:57;21.90;99.90
44117;DHT22;29781;49.480;8.512;2023-06-22T05:09:23;22.10;99.90
44117;DHT22;29781;49.480;8.512;2023-06-22T05:11:50;22.30;99.90
44117;DHT22;29781;49.480;8.512;2023-06-22T05:14:16;22.70;99.90
44117;DHT22;29781;49.480;8.512;2023-06-22T05:16:42;23.20;99.90
44117;DHT22;29781;49.480;8.512;2023-06-22T05:19:08;23.60;99.90
44117;DHT22;29781;49.480;8.512;2023-06-22T05:21:34;23.80;99.90
44117;DHT22;29781;49.480;8.512;2023-06-22T05:24:00;23.80;99.90
44117;DHT22;29781;49.480;8.512;2023-06-22T05:26:31;23.90;99.90
44117;DHT22;29781;49.480;8.512;2023-06-22T05:28:58;23.50;99.90
44117;DHT22;29781;49.480;8.512;2023-06-22T05:31:24;23.50;99.90
44117;DHT22;29781;49.480;8.512;2023-06-22T05:33:52;23.60;99.90
44117;DHT22;29781;49.480;8.512;2023-06-22T05:36:18;23.80;99.90
44117;DHT22;29781;49.480;8.512;2023-06-22T05:38:45;23.90;99.90
44117;DHT22;29781;49.480;8.512;2023-06-22T05:41:11;23.80;99.90
44117;DHT22;29781;49.480;8.512;2023-06-22T05:43:37;23.90;99.90
44117;DHT22;29781;49.480;8.512;2023-06-22T05:46:03;23.90;99.90
44117;DHT22;29781;49.480;8.512;2023-06-22T05:48:29;23.60;99.90
44117;DHT22;29781;49.480;8.512;2023-06-22T05:50:55;23.60;99.90
44117;DHT22;29781;49.480;8.512;2023-06-22T05:53:20;23.60;99.90
44117;DHT22;29781;49.480;8.512;2023-06-22T05:55:46;23.70;99.90
44117;DHT22;29781;49.480;8.512;2023-06-22T05:58:12;23.70;99.90
44117;DHT22;29781;49.480;8.512;2023-06-22T06:00:38;23.90;99.90
44117;DHT22;29781;49.480;8.512;2023-06-22T06:03:04;24.20;99.90
44117;DHT22;29781;49.480;8.512;2023-06-22T06:05:31;24.40;99.90
44117;DHT22;29781;49.480;8.512;2023-06-22T06:07:57;24.40;99.90
44117;DHT22;29781;49.480;8.512;2023-06-22T06:10:22;24.30;99.90
44117;DHT22;29781;49.480;8.512;2023-06-22T06:12:48;24.30;99.90
44117;DHT22;29781;49.480;8.512;2023-06-22T06:15:14;24.20;99.90
44117;DHT22;29781;49.480;8.512;2023-06-22T06:17:47;24.20;99.90
44117;DHT22;29781;49.480;8.512;2023-06-22T06:20:12;24.20;99.90
44117;DHT22;29781;49.480;8.512;2023-06-22T06:22:38;24.40;99.90
44117;DHT22;29781;49.480;8.512;2023-06-22T06:25:04;24.40;99.90
44117;DHT22;29781;49.480;8.512;2023-06-22T06:27:30;24.20;99.90
44117;DHT22;29781;49.480;8.512;2023-06-22T06:29:55;24.30;99.90
44117;DHT22;29781;49.480;8.512;2023-06-22T06:32:21;24.30;99.90
44117;DHT22;29781;49.480;8.512;2023-06-22T06:34:46;24.30;99.90
44117;DHT22;29781;49.480;8.512;2023-06-22T06:37:12;24.40;99.90
44117;DHT22;29781;49.480;8.512;2023-06-22T06:39:37;24.40;99.90
44117;DHT22;29781;49.480;8.512;2023-06-22T06:42:04;24.50;99.90
44117;DHT22;29781;49.480;8.512;2023-06-22T06:44:30;24.50;99.90
44117;DHT22;29781;49.480;8.512;2023-06-22T06:46:55;24.50;99.90
44117;DHT22;29781;49.480;8.512;2023-06-22T06:49:21;24.70;99.90
44117;DHT22;29781;49.480;8.512;2023-06-22T06:51:46;24.70;99.90
44117;DHT22;29781;49.480;8.512;2023-06-22T06:54:12;24.80;99.90
44117;DHT22;29781;49.480;8.512;2023-06-22T06:56:37;24.80;99.90
44117;DHT22;29781;49.480;8.512;2023-06-22T06:59:03;24.90;99.90
44117;DHT22;29781;49.480;8.512;2023-06-22T07:01:29;24.80;99.90
44117;DHT22;29781;49.480;8.512;2023-06-22T07:03:59;25.00;99.90
44117;DHT22;29781;49.480;8.512;2023-06-22T07:06:25;25.00;99.90
44117;DHT22;29781;49.480;8.512;2023-06-22T07:08:55;25.00;99.90
44117;DHT22;29781;49.480;8.512;2023-06-22T07:11:20;25.10;99.90
44117;DHT22;29781;49.480;8.512;2023-06-22T07:13:46;25.10;99.90
44117;DHT22;29781;49.480;8.512;2023-06-22T07:16:11;25.10;99.90
44117;DHT22;29781;49.480;8.512;2023-06-22T07:18:39;25.10;99.90
44117;DHT22;29781;49.480;8.512;2023-06-22T07:21:05;25.20;99.90
44117;DHT22;29781;49.480;8.512;2023-06-22T07:23:32;25.30;99.90
44117;DHT22;29781;49.480;8.512;2023-06-22T07:25:58;25.50;99.90
44117;DHT22;29781;49.480;8.512;2023-06-22T07:28:27;25.50;99.90
44117;DHT22;29781;49.480;8.512;2023-06-22T07:30:52;25.50;99.90
44117;DHT22;29781;49.480;8.512;2023-06-22T07:33:18;25.60;99.90
44117;DHT22;29781;49.480;8.512;2023-06-22T07:35:44;25.80;99.90
44117;DHT22;29781;49.480;8.512;2023-06-22T07:38:10;25.90;99.90
44117;DHT22;29781;49.480;8.512;2023-06-22T07:40:36;25.90;99.90
44117;DHT22;29781;49.480;8.512;2023-06-22T07:43:02;26.00;99.90
44117;DHT22;29781;49.480;8.512;2023-06-22T07:45:29;26.20;99.90
44117;DHT22;29781;49.480;8.512;2023-06-22T07:47:54;26.10;99.90
44117;DHT22;29781;49.480;8.512;2023-06-22T07:50:20;26.00;99.90
44117;DHT22;29781;49.480;8.512;2023-06-22T07:52:45;25.90;99.90
44117;DHT22;29781;49.480;8.512;2023-06-22T07:55:12;26.10;99.90
44117;DHT22;29781;49.480;8.512;2023-06-22T07:57:38;26.30;99.90
44117;DHT22;29781;49.480;8.512;2023-06-22T08:00:05;26.40;99.90
44117;DHT22;29781;49.480;8.512;2023-06-22T08:02:42;26.50;99.90
44117;DHT22;29781;49.480;8.512;2023-06-22T08:05:09;26.70;99.90
44117;DHT22;29781;49.480;8.512;2023-06-22T08:07:35;26.70;99.90
44117;DHT22;29781;49.480;8.512;2023-06-22T08:10:03;26.50;99.90
44117;DHT22;29781;49.480;8.512;2023-06-22T08:12:29;26.30;99.90
44117;DHT22;29781;49.480;8.512;2023-06-22T08:14:54;26.40;99.90
44117;DHT22;29781;49.480;8.512;2023-06-22T08:17:20;26.50;99.90
44117;DHT22;29781;49.480;8.512;2023-06-22T08:19:46;26.30;99.90
44117;DHT22;29781;49.480;8.512;2023-06-22T08:22:11;26.30;99.90
44117;DHT22;29781;49.480;8.512;2023-06-22T08:24:37;26.30;99.90
44117;DHT22;29781;49.480;8.512;2023-06-22T08:27:02;26.50;99.90
44117;DHT22;29781;49.480;8.512;2023-06-22T08:29:28;26.70;99.90
44117;DHT22;29781;49.480;8.512;2023-06-22T08:31:53;26.70;99.90
44117;DHT22;29781;49.480;8.512;2023-06-22T08:34:19;26.80;99.90
44117;DHT22;29781;49.480;8.512;2023-06-22T08:36:53;27.00;99.90
44117;DHT22;29781;49.480;8.512;2023-06-22T08:39:19;27.10;99.90
44117;DHT22;29781;49.480;8.512;2023-06-22T08:41:46;27.00;99.90
44117;DHT22;29781;49.480;8.512;2023-06-22T08:44:11;27.00;99.90
44117;DHT22;29781;49.480;8.512;2023-06-22T08:46:37;27.00;99.90
44117;DHT22;29781;49.480;8.512;2023-06-22T08:49:04;27.10;99.90
44117;DHT22;29781;49.480;8.512;2023-06-22T08:51:29;27.30;99.90
44117;DHT22;29781;49.480;8.512;2023-06-22T08:53:55;27.40;99.90
44117;DHT22;29781;49.480;8.512;2023-06-22T08:56:20;27.70;99.90
44117;DHT22;29781;49.480;8.512;2023-06-22T08:58:46;27.90;99.90
44117;DHT22;29781;49.480;8.512;2023-06-22T09:01:11;27.70;99.90
44117;DHT22;29781;49.480;8.512;2023-06-22T09:03:37;27.80;99.90
44117;DHT22;29781;49.480;8.512;2023-06-22T09:06:03;27.90;99.90
44117;DHT22;29781;49.480;8.512;2023-06-22T09:08:28;28.20;99.90
44117;DHT22;29781;49.480;8.512;2023-06-22T09:10:54;28.40;99.90
44117;DHT22;29781;49.480;8.512;2023-06-22T09:13:20;28.30;99.90
44117;DHT22;29781;49.480;8.512;2023-06-22T09:15:45;28.50;99.90
44117;DHT22;29781;49.480;8.512;2023-06-22T09:18:11;28.50;99.90
44117;DHT22;29781;49.480;8.512;2023-06-22T09:20:37;28.40;99.90
44117;DHT22;29781;49.480;8.512;2023-06-22T09:23:02;28.20;99.90
44117;DHT22;29781;49.480;8.512;2023-06-22T09:25:28;27.90;99.90
44117;DHT22;29781;49.480;8.512;2023-06-22T09:27:53;28.10;99.90
44117;DHT22;29781;49.480;8.512;2023-06-22T09:30:19;28.10;99.90
44117;DHT22;29781;49.480;8.512;2023-06-22T09:32:45;28.30;99.90
44117;DHT22;29781;49.480;8.512;2023-06-22T09:35:10;28.20;99.90
44117;DHT22;29781;49.480;8.512;2023-06-22T09:37:38;28.20;99.90
44117;DHT22;29781;49.480;8.512;2023-06-22T09:40:04;28.40;99.90
44117;DHT22;29781;49.480;8.512;2023-06-22T09:42:38;28.80;99.90
44117;DHT22;29781;49.480;8.512;2023-06-22T09:45:04;29.00;99.90
44117;DHT22;29781;49.480;8.512;2023-06-22T09:47:30;29.30;99.90
44117;DHT22;29781;49.480;8.512;2023-06-22T09:49:55;29.50;99.90
44117;DHT22;29781;49.480;8.512;2023-06-22T09:52:21;29.80;99.90
44117;DHT22;29781;49.480;8.512;2023-06-22T09:54:47;29.80;99.90
44117;DHT22;29781;49.480;8.512;2023-06-22T09:57:13;29.60;99.90
44117;DHT22;29781;49.480;8.512;2023-06-22T09:59:38;29.60;99.90
44117;DHT22;29781;49.480;8.512;2023-06-22T10:02:07;29.70;99.90
44117;DHT22;29781;49.480;8.512;2023-06-22T10:04:34;29.70;99.90
44117;DHT22;29781;49.480;8.512;2023-06-22T10:07:00;29.80;99.90
44117;DHT22;29781;49.480;8.512;2023-06-22T10:09:25;29.80;99.90
44117;DHT22;29781;49.480;8.512;2023-06-22T10:11:51;29.90;99.90
44117;DHT22;29781;49.480;8.512;2023-06-22T10:14:16;30.10;99.90
44117;DHT22;29781;49.480;8.512;2023-06-22T10:16:42;30.10;99.90
44117;DHT22;29781;49.480;8.512;2023-06-22T10:19:08;30.10;99.90
44117;DHT22;29781;49.480;8.512;2023-06-22T10:21:33;30.00;99.90
44117;DHT22;29781;49.480;8.512;2023-06-22T10:24:00;29.90;99.90
44117;DHT22;29781;49.480;8.512;2023-06-22T10:26:32;29.70;99.90
44117;DHT22;29781;49.480;8.512;2023-06-22T10:28:57;29.70;99.90
44117;DHT22;29781;49.480;8.512;2023-06-22T10:31:23;29.70;99.90
44117;DHT22;29781;49.480;8.512;2023-06-22T10:33:48;29.80;99.90
44117;DHT22;29781;49.480;8.512;2023-06-22T10:36:15;29.80;99.90
44117;DHT22;29781;49.480;8.512;2023-06-22T10:38:40;30.00;99.90
44117;DHT22;29781;49.480;8.512;2023-06-22T10:41:06;29.70;99.90
44117;DHT22;29781;49.480;8.512;2023-06-22T10:43:31;29.60;99.90
44117;DHT22;29781;49.480;8.512;2023-06-22T10:45:57;29.70;99.90
44117;DHT22;29781;49.480;8.512;2023-06-22T10:48:22;29.60;99.90
44117;DHT22;29781;49.480;8.512;2023-06-22T10:50:48;29.80;99.90
44117;DHT22;29781;49.480;8.512;2023-06-22T10:53:13;29.90;99.90
44117;DHT22;29781;49.480;8.512;2023-06-22T10:55:39;30.00;99.90
44117;DHT22;29781;49.480;8.512;2023-06-22T10:58:05;30.20;99.90
44117;DHT22;29781;49.480;8.512;2023-06-22T11:00:30;30.80;99.90
44117;DHT22;29781;49.480;8.512;2023-06-22T11:02:56;31.00;99.90
44117;DHT22;29781;49.480;8.512;2023-06-22T11:05:22;30.90;99.90
44117;DHT22;29781;49.480;8.512;2023-06-22T11:07:47;30.60;99.90
44117;DHT22;29781;49.480;8.512;2023-06-22T11:10:14;30.60;99.90
44117;DHT22;29781;49.480;8.512;2023-06-22T11:12:40;30.50;99.90
44117;DHT22;29781;49.480;8.512;2023-06-22T11:15:06;30.40;99.90
44117;DHT22;29781;49.480;8.512;2023-06-22T11:17:32;30.50;99.90
44117;DHT22;29781;49.480;8.512;2023-06-22T11:19:57;30.50;99.90
44117;DHT22;29781;49.480;8.512;2023-06-22T11:22:25;30.50;99.90
44117;DHT22;29781;49.480;8.512;2023-06-22T11:24:51;30.40;99.90
44117;DHT22;29781;49.480;8.512;2023-06-22T11:27:16;30.50;99.90
44117;DHT22;29781;49.480;8.512;2023-06-22T11:29:42;30.40;99.90
44117;DHT22;29781;49.480;8.512;2023-06-22T11:32:07;30.50;99.90
44117;DHT22;29781;49.480;8.512;2023-06-22T11:34:33;30.40;99.90
44117;DHT22;29781;49.480;8.512;2023-06-22T11:36:58;30.20;99.90
44117;DHT22;29781;49.480;8.512;2023-06-22T11:39:24;30.20;99.90
44117;DHT22;29781;49.480;8.512;2023-06-22T11:41:49;30.10;99.90
44117;DHT22;29781;49.480;8.512;2023-06-22T11:44:15;30.10;99.90
44117;DHT22;29781;49.480;8.512;2023-06-22T11:46:40;30.20;99.90
44117;DHT22;29781;49.480;8.512;2023-06-22T11:49:06;30.30;99.90
44117;DHT22;29781;49.480;8.512;2023-06-22T11:51:32;30.30;99.90
44117;DHT22;29781;49.480;8.512;2023-06-22T11:53:57;30.40;99.90
44117;DHT22;29781;49.480;8.512;2023-06-22T11:56:24;30.40;99.90
44117;DHT22;29781;49.480;8.512;2023-06-22T11:58:49;30.40;99.90
44117;DHT22;29781;49.480;8.512;2023-06-22T12:01:15;30.50;99.90
44117;DHT22;29781;49.480;8.512;2023-06-22T12:03:41;30.50;99.90
44117;DHT22;29781;49.480;8.512;2023-06-22T12:06:08;30.50;99.90
44117;DHT22;29781;49.480;8.512;2023-06-22T12:08:34;30.50;99.90
44117;DHT22;29781;49.480;8.512;2023-06-22T12:10:59;30.50;99.90
44117;DHT22;29781;49.480;8.512;2023-06-22T12:13:25;30.40;99.90
44117;DHT22;29781;49.480;8.512;2023-06-22T12:15:50;30.40;99.90
44117;DHT22;29781;49.480;8.512;2023-06-22T12:18:17;30.50;99.90
44117;DHT22;29781;49.480;8.512;2023-06-22T12:20:46;30.60;99.90
44117;DHT22;29781;49.480;8.512;2023-06-22T12:23:11;30.70;99.90
44117;DHT22;29781;49.480;8.512;2023-06-22T12:25:37;30.70;99.90
44117;DHT22;29781;49.480;8.512;2023-06-22T12:28:02;30.80;99.90
44117;DHT22;29781;49.480;8.512;2023-06-22T12:30:30;30.80;99.90
44117;DHT22;29781;49.480;8.512;2023-06-22T12:32:55;30.90;99.90
44117;DHT22;29781;49.480;8.512;2023-06-22T12:35:21;30.90;99.90
44117;DHT22;29781;49.480;8.512;2023-06-22T12:37:47;31.00;99.90
44117;DHT22;29781;49.480;8.512;2023-06-22T12:40:12;31.10;99.90
44117;DHT22;29781;49.480;8.512;2023-06-22T12:42:38;31.10;99.90
44117;DHT22;29781;49.480;8.512;2023-06-22T12:45:04;31.10;99.90
44117;DHT22;29781;49.480;8.512;2023-06-22T12:47:30;31.20;99.90
44117;DHT22;29781;49.480;8.512;2023-06-22T12:49:56;31.20;99.90
44117;DHT22;29781;49.480;8.512;2023-06-22T12:52:22;31.10;99.90
44117;DHT22;29781;49.480;8.512;2023-06-22T12:54:47;31.10;99.90
44117;DHT22;29781;49.480;8.512;2023-06-22T12:57:14;31.10;99.90
44117;DHT22;29781;49.480;8.512;2023-06-22T12:59:39;31.00;99.90
44117;DHT22;29781;49.480;8.512;2023-06-22T13:02:05;31.00;99.90
44117;DHT22;29781;49.480;8.512;2023-06-22T13:04:31;31.00;99.90
44117;DHT22;29781;49.480;8.512;2023-06-22T13:06:56;30.90;99.90
44117;DHT22;29781;49.480;8.512;2023-06-22T13:09:22;30.90;99.90
44117;DHT22;29781;49.480;8.512;2023-06-22T13:11:47;30.90;99.90
44117;DHT22;29781;49.480;8.512;2023-06-22T13:14:13;31.00;99.90
44117;DHT22;29781;49.480;8.512;2023-06-22T13:16:39;31.00;99.90
44117;DHT22;29781;49.480;8.512;2023-06-22T13:19:04;31.10;99.90
44117;DHT22;29781;49.480;8.512;2023-06-22T13:21:30;31.20;99.90
44117;DHT22;29781;49.480;8.512;2023-06-22T13:23:56;31.30;99.90
44117;DHT22;29781;49.480;8.512;2023-06-22T13:26:21;31.30;99.90
44117;DHT22;29781;49.480;8.512;2023-06-22T13:28:48;31.30;99.90
44117;DHT22;29781;49.480;8.512;2023-06-22T13:31:13;31.40;99.90
44117;DHT22;29781;49.480;8.512;2023-06-22T13:33:39;31.40;99.90
44117;DHT22;29781;49.480;8.512;2023-06-22T13:36:06;31.40;99.90
44117;DHT22;29781;49.480;8.512;2023-06-22T13:38:34;31.30;99.90
44117;DHT22;29781;49.480;8.512;2023-06-22T13:41:00;31.30;99.90
44117;DHT22;29781;49.480;8.512;2023-06-22T13:43:27;31.40;99.90
44117;DHT22;29781;49.480;8.512;2023-06-22T13:45:52;31.50;99.90
44117;DHT22;29781;49.480;8.512;2023-06-22T13:48:18;31.40;99.90
44117;DHT22;29781;49.480;8.512;2023-06-22T13:50:44;31.30;99.90
44117;DHT22;29781;49.480;8.512;2023-06-22T13:53:09;31.30;99.90
44117;DHT22;29781;49.480;8.512;2023-06-22T13:55:35;31.30;99.90
44117;DHT22;29781;49.480;8.512;2023-06-22T13:58:00;31.20;99.90
44117;DHT22;29781;49.480;8.512;2023-06-22T14:00:26;31.20;99.90
44117;DHT22;29781;49.480;8.512;2023-06-22T14:02:53;31.10;99.90
44117;DHT22;29781;49.480;8.512;2023-06-22T14:05:19;30.90;99.90
44117;DHT22;29781;49.480;8.512;2023-06-22T14:07:45;30.80;99.90
44117;DHT22;29781;49.480;8.512;2023-06-22T14:10:10;30.70;99.90
44117;DHT22;29781;49.480;8.512;2023-06-22T14:12:36;30.60;99.90
44117;DHT22;29781;49.480;8.512;2023-06-22T14:15:01;30.60;99.90
44117;DHT22;29781;49.480;8.512;2023-06-22T14:17:27;30.60;99.90
44117;DHT22;29781;49.480;8.512;2023-06-22T14:19:53;30.50;99.90
44117;DHT22;29781;49.480;8.512;2023-06-22T14:22:19;30.40;99.90
44117;DHT22;29781;49.480;8.512;2023-06-22T14:24:46;30.40;99.90
44117;DHT22;29781;49.480;8.512;2023-06-22T14:27:11;30.30;99.90
44117;DHT22;29781;49.480;8.512;2023-06-22T14:29:37;30.30;99.90
44117;DHT22;29781;49.480;8.512;2023-06-22T14:32:02;30.20;99.90
44117;DHT22;29781;49.480;8.512;2023-06-22T14:34:29;30.30;99.90
44117;DHT22;29781;49.480;8.512;2023-06-22T14:36:55;30.20;99.90
44117;DHT22;29781;49.480;8.512;2023-06-22T14:39:20;30.30;99.90
44117;DHT22;29781;49.480;8.512;2023-06-22T14:41:46;30.30;99.90
44117;DHT22;29781;49.480;8.512;2023-06-22T14:44:12;30.30;99.90
44117;DHT22;29781;49.480;8.512;2023-06-22T14:46:37;30.30;99.90
44117;DHT22;29781;49.480;8.512;2023-06-22T14:49:03;30.30;99.90
44117;DHT22;29781;49.480;8.512;2023-06-22T14:51:28;30.20;99.90
44117;DHT22;29781;49.480;8.512;2023-06-22T14:53:53;30.10;99.90
44117;DHT22;29781;49.480;8.512;2023-06-22T14:56:19;30.00;99.90
44117;DHT22;29781;49.480;8.512;2023-06-22T14:58:45;30.00;99.90
44117;DHT22;29781;49.480;8.512;2023-06-22T15:01:11;30.00;99.90
44117;DHT22;29781;49.480;8.512;2023-06-22T15:03:37;29.90;99.90
44117;DHT22;29781;49.480;8.512;2023-06-22T15:06:03;30.00;99.90
44117;DHT22;29781;49.480;8.512;2023-06-22T15:08:29;30.00;99.90
44117;DHT22;29781;49.480;8.512;2023-06-22T15:10:57;30.00;99.90
44117;DHT22;29781;49.480;8.512;2023-06-22T15:13:23;30.00;99.90
44117;DHT22;29781;49.480;8.512;2023-06-22T15:15:50;30.00;99.90
44117;DHT22;29781;49.480;8.512;2023-06-22T15:18:16;30.10;99.90
44117;DHT22;29781;49.480;8.512;2023-06-22T15:20:42;30.10;99.90
44117;DHT22;29781;49.480;8.512;2023-06-22T15:23:13;30.20;99.90
44117;DHT22;29781;49.480;8.512;2023-06-22T15:25:39;30.30;99.90
44117;DHT22;29781;49.480;8.512;2023-06-22T15:28:05;30.20;99.90
44117;DHT22;29781;49.480;8.512;2023-06-22T15:30:30;30.20;99.90
44117;DHT22;29781;49.480;8.512;2023-06-22T15:33:00;30.20;99.90